createdAt,value
2022-11-21T00:01:00.224Z,3.83
2022-11-21T00:03:27.345Z,3.70
2022-11-21T00:05:54.436Z,4.22
2022-11-21T00:08:22.756Z,4.53
2022-11-21T00:10:50.320Z,4.70
2022-11-21T00:13:21.039Z,3.97
2022-11-21T00:15:48.610Z,4.85
2022-11-21T00:18:16.491Z,3.75
2022-11-21T00:20:44.555Z,4.10
2022-11-21T00:23:12.438Z,4.22
2022-11-21T00:25:39.832Z,4.38
2022-11-21T00:28:06.964Z,4.47
2022-11-21T00:30:33.930Z,3.72
2022-11-21T00:33:01.196Z,4.70
2022-11-21T00:35:28.425Z,4.03
2022-11-21T00:37:55.485Z,4.47
2022-11-21T00:40:22.525Z,4.28
2022-11-21T00:42:49.685Z,4.20
2022-11-21T00:45:22.759Z,3.88
2022-11-21T00:47:51.340Z,3.83
2022-11-21T00:50:18.438Z,3.80
2022-11-21T00:52:45.539Z,3.75
2022-11-21T00:55:12.532Z,4.30
2022-11-21T00:57:39.648Z,3.85
2022-11-21T01:00:07.346Z,3.80
2022-11-21T01:02:34.474Z,3.30
2022-11-21T01:05:01.518Z,4.10
2022-11-21T01:07:28.617Z,3.60
2022-11-21T01:09:55.652Z,3.60
2022-11-21T01:12:22.932Z,4.15
2022-11-21T01:14:50.727Z,4.00
2022-11-21T01:17:19.166Z,3.65
2022-11-21T01:19:46.703Z,3.72
2022-11-21T01:22:13.762Z,3.97
2022-11-21T01:24:40.777Z,3.67
2022-11-21T01:27:07.813Z,4.35
2022-11-21T01:29:34.891Z,3.25
2022-11-21T01:32:01.967Z,3.72
2022-11-21T01:34:29.187Z,3.92
2022-11-21T01:36:56.485Z,4.10
2022-11-21T01:39:25.018Z,3.67
2022-11-21T01:41:52.193Z,3.58
2022-11-21T01:44:23.257Z,3.72
2022-11-21T01:46:51.354Z,3.80
2022-11-21T01:49:26.506Z,3.97
2022-11-21T01:52:02.085Z,3.35
2022-11-21T01:54:52.992Z,3.88
2022-11-21T01:57:27.002Z,3.08
2022-11-21T02:00:02.457Z,4.20
2022-11-21T02:02:34.796Z,3.60
2022-11-21T02:05:04.910Z,3.28
2022-11-21T02:07:40.001Z,3.58
2022-11-21T02:10:08.384Z,3.00
2022-11-21T02:12:43.704Z,3.10
2022-11-21T02:15:11.544Z,3.30
2022-11-21T02:17:38.917Z,2.92
2022-11-21T02:20:08.701Z,3.10
2022-11-21T02:22:49.996Z,3.42
2022-11-21T02:25:22.567Z,3.55
2022-11-21T02:27:52.512Z,2.67
2022-11-21T02:30:19.847Z,2.70
2022-11-21T02:32:47.408Z,3.40
2022-11-21T02:35:17.645Z,2.90
2022-11-21T02:37:51.909Z,2.88
2022-11-21T02:40:25.564Z,2.90
2022-11-21T02:43:20.014Z,3.00
2022-11-21T02:45:47.205Z,2.63
2022-11-21T02:48:14.806Z,3.47
2022-11-21T02:50:44.231Z,3.10
2022-11-21T02:53:14.612Z,3.20
2022-11-21T02:55:42.770Z,3.20
2022-11-21T02:58:09.906Z,3.15
2022-11-21T03:00:38.628Z,3.20
2022-11-21T03:03:05.801Z,3.20
2022-11-21T03:05:33.344Z,2.78
2022-11-21T03:08:00.455Z,2.80
2022-11-21T03:10:27.608Z,2.92
2022-11-21T03:13:01.186Z,2.75
2022-11-21T03:15:33.851Z,2.40
2022-11-21T03:18:02.979Z,2.95
2022-11-21T03:20:31.649Z,2.47
2022-11-21T03:22:59.302Z,2.50
2022-11-21T03:25:26.699Z,2.70
2022-11-21T03:27:54.564Z,2.80
2022-11-21T03:30:23.491Z,2.67
2022-11-21T03:32:50.581Z,2.80
2022-11-21T03:35:17.806Z,2.90
2022-11-21T03:37:44.851Z,2.70
2022-11-21T03:40:12.357Z,2.40
2022-11-21T03:42:39.522Z,2.30
2022-11-21T03:45:07.324Z,2.15
2022-11-21T03:47:34.577Z,2.70
2022-11-21T03:50:01.598Z,2.22
2022-11-21T03:52:28.646Z,2.40
2022-11-21T03:54:55.679Z,2.40
2022-11-21T03:57:22.705Z,2.17
2022-11-21T03:59:49.794Z,2.40
2022-11-21T04:02:16.823Z,2.47
2022-11-21T04:04:43.828Z,2.13
2022-11-21T04:07:10.911Z,2.28
2022-11-21T04:09:38.177Z,2.30
2022-11-21T04:12:07.885Z,2.17
2022-11-21T04:14:35.397Z,2.92
2022-11-21T04:17:02.681Z,2.72
2022-11-21T04:19:29.685Z,2.20
2022-11-21T04:21:56.835Z,2.22
2022-11-21T04:24:23.937Z,1.77
2022-11-21T04:26:50.923Z,2.50
2022-11-21T04:29:17.980Z,2.33
2022-11-21T04:31:45.096Z,2.33
2022-11-21T04:34:12.139Z,2.10
2022-11-21T04:36:39.144Z,1.73
2022-11-21T04:39:06.203Z,2.28
2022-11-21T04:41:33.363Z,2.10
2022-11-21T04:44:00.449Z,2.05
2022-11-21T04:46:27.585Z,1.73
2022-11-21T04:48:54.560Z,1.85
2022-11-21T04:51:21.627Z,2.10
2022-11-21T04:53:48.664Z,1.90
2022-11-21T04:56:16.777Z,2.30
2022-11-21T04:58:44.928Z,1.70
2022-11-21T05:01:12.502Z,2.05
2022-11-21T05:03:39.669Z,2.45
2022-11-21T05:06:06.687Z,1.98
2022-11-21T05:08:33.729Z,1.88
2022-11-21T05:11:20.780Z,2.10
2022-11-21T05:13:47.779Z,1.90
2022-11-21T05:16:14.809Z,1.73
2022-11-21T05:18:41.832Z,1.77
2022-11-21T05:21:08.862Z,1.75
2022-11-21T05:23:35.915Z,1.67
2022-11-21T05:26:02.889Z,1.77
2022-11-21T05:28:30.013Z,2.00
2022-11-21T05:30:57.019Z,1.63
2022-11-21T05:33:24.010Z,1.80
2022-11-21T05:35:51.011Z,2.05
2022-11-21T05:38:18.043Z,2.17
2022-11-21T05:40:45.042Z,1.80
2022-11-21T05:43:32.965Z,1.70
2022-11-21T05:45:59.974Z,2.25
2022-11-21T05:48:27.033Z,1.85
2022-11-21T05:50:54.105Z,2.10
2022-11-21T05:53:21.238Z,1.80
2022-11-21T05:55:48.307Z,1.85
2022-11-21T05:58:15.416Z,1.63
2022-11-21T06:00:42.494Z,1.92
2022-11-21T06:03:30.134Z,1.60
2022-11-21T06:06:07.989Z,1.80
2022-11-21T06:08:37.396Z,2.00
2022-11-21T06:11:06.534Z,2.03
2022-11-21T06:13:34.040Z,1.38
2022-11-21T06:16:08.294Z,2.00
2022-11-21T06:18:37.572Z,1.75
2022-11-21T06:21:07.723Z,1.98
2022-11-21T06:28:15.342Z,2.03
2022-11-21T06:45:32.989Z,1.77
2022-11-21T06:48:03.517Z,2.00
2022-11-21T06:50:34.320Z,1.77
2022-11-21T06:57:11.377Z,1.92
2022-11-21T06:59:38.465Z,2.05
2022-11-21T07:02:05.478Z,2.70
2022-11-21T07:04:32.487Z,1.95
2022-11-21T07:06:59.599Z,2.35
2022-11-21T07:09:33.239Z,2.47
2022-11-21T07:12:20.648Z,1.70
2022-11-21T07:14:48.055Z,2.40
2022-11-21T07:17:15.354Z,2.30
2022-11-21T07:24:06.610Z,2.00
2022-11-21T07:54:29.536Z,3.28
2022-11-21T07:56:56.561Z,4.20
2022-11-21T07:59:23.589Z,4.82
2022-11-21T08:05:32.057Z,4.38
2022-11-21T08:07:59.047Z,4.65
2022-11-21T08:10:26.084Z,3.92
2022-11-21T08:12:53.163Z,2.88
2022-11-21T08:15:20.192Z,3.63
2022-11-21T08:26:13.035Z,3.47
2022-11-21T08:28:40.115Z,3.50
2022-11-21T08:31:07.148Z,2.92
2022-11-21T08:33:34.325Z,2.58
2022-11-21T08:44:43.359Z,3.28
2022-11-21T08:47:10.384Z,3.20
2022-11-21T08:49:37.433Z,3.10
2022-11-21T08:53:06.134Z,3.08
2022-11-21T08:55:33.193Z,2.70
2022-11-21T08:58:00.260Z,3.38
2022-11-21T09:00:27.388Z,3.00
2022-11-21T09:02:54.463Z,2.85
2022-11-21T09:05:21.643Z,3.35
2022-11-21T09:11:30.059Z,3.30
2022-11-21T09:14:18.735Z,2.80
2022-11-21T09:17:05.714Z,2.80
2022-11-21T09:19:32.755Z,2.80
2022-11-21T09:21:59.781Z,2.70
2022-11-21T09:25:31.771Z,3.20
2022-11-21T09:28:07.163Z,2.75
2022-11-21T09:30:35.516Z,2.55
2022-11-21T09:33:03.724Z,2.70
2022-11-21T09:35:31.037Z,2.45
2022-11-21T09:44:40.823Z,2.60
2022-11-21T09:47:24.084Z,2.10
2022-11-21T09:50:04.405Z,2.00
2022-11-21T09:52:57.450Z,1.92
2022-11-21T09:55:43.273Z,2.65
2022-11-21T09:58:32.194Z,2.03
2022-11-21T10:00:59.495Z,2.20
2022-11-21T10:03:33.659Z,2.05
2022-11-21T10:06:29.474Z,2.10
2022-11-21T10:09:38.760Z,1.92
2022-11-21T10:12:39.825Z,2.08
2022-11-21T10:25:26.685Z,1.70
2022-11-21T10:28:04.714Z,1.83
2022-11-21T10:34:16.021Z,1.95
2022-11-21T10:39:45.469Z,1.95
2022-11-21T10:42:40.470Z,1.88
2022-11-21T10:49:00.277Z,1.67
2022-11-21T10:51:51.232Z,1.95
2022-11-21T10:54:34.175Z,2.05
2022-11-21T10:57:16.456Z,1.80
2022-11-21T11:04:28.145Z,1.70
2022-11-21T11:11:15.154Z,2.60
2022-11-21T11:14:14.705Z,2.22
2022-11-21T11:20:42.194Z,1.90
2022-11-21T11:23:27.839Z,2.00
2022-11-21T11:25:57.910Z,2.17
2022-11-21T11:28:27.406Z,1.88
2022-11-21T11:30:55.856Z,2.30
2022-11-21T11:33:36.986Z,1.88
2022-11-21T11:40:14.785Z,1.95
2022-11-21T11:47:00.268Z,1.85
2022-11-21T11:50:07.189Z,1.90
2022-11-21T11:52:39.644Z,2.33
2022-11-21T11:55:15.110Z,2.17
2022-11-21T11:57:43.669Z,1.85
2022-11-21T12:00:30.804Z,2.03
2022-11-21T12:03:17.117Z,2.17
2022-11-21T12:09:51.152Z,2.22
2022-11-21T12:12:39.851Z,2.00
2022-11-21T12:15:47.403Z,1.80
2022-11-21T12:18:38.289Z,2.08
2022-11-21T12:21:49.477Z,2.78
2022-11-21T12:24:21.053Z,2.47
2022-11-21T12:27:20.315Z,1.80
2022-11-21T12:31:12.711Z,1.80
2022-11-21T12:34:06.543Z,2.15
2022-11-21T12:36:49.728Z,1.73
2022-11-21T12:39:42.769Z,1.42
2022-11-21T12:42:43.079Z,1.92
2022-11-21T12:45:44.270Z,1.50
2022-11-21T12:49:03.088Z,1.90
2022-11-21T12:52:20.226Z,2.10
2022-11-21T12:55:18.059Z,1.67
2022-11-21T13:07:37.945Z,1.92
2022-11-21T13:10:50.972Z,1.90
2022-11-21T13:13:27.116Z,2.05
2022-11-21T13:16:05.692Z,1.92
2022-11-21T13:18:54.550Z,2.00
2022-11-21T13:25:53.402Z,1.98
2022-11-21T13:28:31.542Z,1.90
2022-11-21T13:31:37.636Z,2.20
2022-11-21T13:34:05.927Z,1.55
2022-11-21T13:36:54.546Z,2.10
2022-11-21T13:39:28.125Z,2.00
2022-11-21T13:42:24.197Z,1.92
2022-11-21T13:44:51.563Z,1.85
2022-11-21T13:51:47.576Z,1.75
2022-11-21T13:54:55.201Z,1.80
2022-11-21T13:57:58.694Z,2.80
2022-11-21T14:00:43.015Z,2.50
2022-11-21T14:04:14.198Z,2.13
2022-11-21T14:06:49.733Z,2.03
2022-11-21T14:09:34.244Z,2.20
2022-11-21T14:12:21.563Z,1.83
2022-11-21T14:14:54.077Z,2.53
2022-11-21T14:17:44.986Z,2.70
2022-11-21T14:20:25.565Z,2.95
2022-11-21T14:23:31.997Z,2.10
2022-11-21T14:26:06.494Z,2.80
2022-11-21T14:28:35.643Z,2.13
2022-11-21T14:31:12.396Z,2.75
2022-11-21T14:33:59.873Z,2.25
2022-11-21T14:36:30.023Z,2.83
2022-11-21T14:39:35.369Z,2.65
2022-11-21T14:41:56.741Z,2.70
2022-11-21T14:44:24.596Z,3.25
2022-11-21T15:37:52.703Z,3.03
2022-11-21T15:40:20.740Z,3.33
2022-11-21T15:42:48.712Z,2.25
2022-11-21T15:45:25.652Z,3.38
2022-11-21T15:54:32.719Z,2.70
2022-11-21T15:56:59.731Z,2.78
2022-11-21T15:59:27.150Z,2.67
2022-11-21T16:06:12.652Z,3.05
2022-11-21T16:08:39.928Z,2.92
2022-11-21T16:11:07.560Z,2.78
2022-11-21T16:13:40.794Z,2.70
2022-11-21T16:16:11.045Z,3.35
2022-11-21T16:18:38.049Z,3.55
2022-11-21T16:21:06.955Z,2.85
2022-11-21T16:23:34.323Z,3.05
2022-11-21T16:26:01.594Z,3.08
2022-11-21T16:28:28.652Z,3.65
2022-11-21T16:30:57.426Z,3.42
2022-11-21T16:33:27.312Z,3.35
2022-11-21T16:35:57.634Z,3.25
2022-11-21T16:38:29.034Z,4.07
2022-11-21T16:41:01.849Z,3.28
2022-11-21T16:43:29.746Z,4.03
2022-11-21T16:46:06.259Z,3.05
2022-11-21T16:48:33.261Z,3.35
2022-11-21T16:51:13.038Z,3.63
2022-11-21T16:53:41.546Z,4.20
2022-11-21T16:56:09.477Z,3.75
2022-11-21T16:58:37.520Z,4.63
2022-11-21T17:01:18.407Z,4.07
2022-11-21T17:03:47.639Z,4.47
2022-11-21T17:06:17.683Z,5.20
2022-11-21T17:08:45.173Z,4.13
2022-11-21T17:11:21.191Z,4.47
2022-11-21T17:13:50.202Z,5.00
2022-11-21T17:16:19.879Z,5.07
2022-11-21T17:18:47.439Z,5.20
2022-11-21T17:21:16.417Z,5.93
2022-11-21T17:23:45.905Z,6.15
2022-11-21T17:26:15.717Z,5.82
2022-11-21T17:28:45.846Z,6.47
2022-11-21T17:33:43.242Z,6.90
2022-11-21T17:36:14.195Z,7.15
2022-11-21T17:38:42.580Z,8.10
2022-11-21T17:41:12.142Z,7.93
2022-11-21T17:43:39.611Z,8.23
2022-11-21T17:46:16.941Z,8.50
2022-11-21T17:48:49.762Z,8.75
2022-11-21T17:51:33.556Z,9.88
2022-11-21T17:56:30.924Z,10.10
2022-11-21T17:58:58.035Z,11.85
2022-11-21T18:01:25.536Z,11.68
2022-11-21T18:03:58.407Z,11.32
2022-11-21T18:06:32.702Z,11.25
2022-11-21T18:08:59.925Z,10.50
2022-11-21T18:11:37.611Z,11.02
2022-11-21T18:14:07.472Z,11.45
2022-11-21T18:16:34.720Z,11.50
2022-11-21T18:19:02.527Z,11.40
2022-11-21T18:21:35.631Z,11.48
2022-11-21T18:24:03.018Z,11.60
2022-11-21T18:26:33.863Z,12.05
2022-11-21T18:29:28.642Z,11.90
2022-11-21T18:31:49.497Z,11.98
2022-11-21T18:34:16.734Z,11.77
2022-11-21T18:36:43.833Z,11.80
2022-11-21T18:39:14.747Z,11.90
2022-11-21T18:41:43.335Z,11.63
2022-11-21T18:44:13.568Z,11.77
2022-11-21T18:46:43.336Z,12.43
2022-11-21T18:49:10.391Z,12.32
2022-11-21T18:51:37.516Z,12.48
2022-11-21T18:54:11.327Z,12.52
2022-11-21T18:56:39.832Z,12.95
2022-11-21T18:59:07.359Z,12.88
2022-11-21T19:01:36.327Z,12.50
2022-11-21T19:04:03.947Z,12.85
2022-11-21T19:06:31.071Z,12.13
2022-11-21T19:08:59.011Z,11.65
2022-11-21T19:11:28.698Z,11.48
2022-11-21T19:13:57.178Z,11.65
2022-11-21T19:16:26.488Z,11.75
2022-11-21T19:19:26.369Z,11.20
2022-11-21T19:21:42.434Z,11.95
2022-11-21T19:24:14.173Z,11.38
2022-11-21T19:26:41.544Z,11.90
2022-11-21T19:29:08.944Z,11.65
2022-11-21T19:31:41.024Z,12.57
2022-11-21T19:34:12.320Z,12.05
2022-11-21T19:36:39.690Z,11.38
2022-11-21T19:39:06.914Z,11.13
2022-11-21T19:41:33.899Z,10.95
2022-11-21T19:44:01.974Z,11.70
2022-11-21T19:46:34.575Z,11.45
2022-11-21T19:49:02.029Z,11.23
2022-11-21T19:51:38.075Z,11.25
2022-11-21T19:54:07.206Z,11.93
2022-11-21T19:56:35.050Z,11.65
2022-11-21T19:59:02.305Z,10.98
2022-11-21T20:01:31.825Z,11.27
2022-11-21T20:04:01.412Z,10.17
2022-11-21T20:06:37.228Z,12.03
2022-11-21T20:09:08.325Z,11.23
2022-11-21T20:11:35.953Z,10.85
2022-11-21T20:14:03.039Z,11.48
2022-11-21T20:16:33.383Z,11.20
2022-11-21T20:19:02.859Z,10.30
2022-11-21T20:21:30.700Z,11.93
2022-11-21T20:23:57.920Z,11.90
2022-11-21T20:26:25.973Z,11.45
2022-11-21T20:28:53.622Z,10.07
2022-11-21T20:31:23.155Z,11.02
2022-11-21T20:33:54.205Z,11.57
2022-11-21T20:36:23.745Z,10.40
2022-11-21T20:39:02.853Z,11.20
2022-11-21T20:41:32.202Z,10.98
2022-11-21T20:46:48.824Z,11.55
2022-11-21T20:49:16.063Z,10.90
2022-11-21T20:54:31.037Z,10.57
2022-11-21T20:56:58.243Z,10.85
2022-11-21T20:59:26.461Z,11.90
2022-11-21T21:01:53.901Z,11.75
2022-11-21T21:04:21.068Z,11.20
2022-11-21T21:06:48.139Z,11.73
2022-11-21T21:09:15.229Z,10.77
2022-11-21T21:11:52.048Z,11.90
2022-11-21T21:14:23.796Z,11.18
2022-11-21T21:16:51.106Z,10.65
2022-11-21T21:19:18.286Z,10.75
2022-11-21T21:21:45.382Z,10.98
2022-11-21T21:24:13.381Z,10.80
2022-11-21T21:26:45.937Z,11.45
2022-11-21T21:29:20.351Z,11.38
2022-11-21T21:31:51.465Z,11.10
2022-11-21T21:34:22.723Z,12.15
2022-11-21T21:36:50.950Z,10.45
2022-11-21T21:39:18.140Z,10.98
2022-11-21T21:41:47.369Z,11.50
2022-11-21T21:44:15.773Z,11.23
2022-11-21T21:46:43.038Z,11.20
2022-11-21T21:49:10.118Z,11.65
2022-11-21T21:51:37.880Z,11.57
2022-11-21T21:54:05.378Z,10.50
2022-11-21T21:56:33.842Z,11.00
2022-11-21T21:59:00.948Z,11.18
2022-11-21T22:01:29.950Z,11.70
2022-11-21T22:03:59.757Z,10.75
2022-11-21T22:06:27.727Z,12.30
2022-11-21T22:08:55.876Z,11.73
2022-11-21T22:11:25.143Z,11.82
2022-11-21T22:14:01.600Z,10.40
2022-11-21T22:16:29.693Z,12.32
2022-11-21T22:18:57.874Z,10.85
2022-11-21T22:21:33.597Z,11.80
2022-11-21T22:24:24.933Z,11.32
2022-11-21T22:26:53.015Z,11.10
2022-11-21T22:29:20.174Z,11.45
2022-11-21T22:31:47.257Z,11.93
2022-11-21T22:34:14.477Z,11.35
2022-11-21T22:36:42.317Z,11.35
2022-11-21T22:39:09.546Z,11.40
2022-11-21T22:41:36.562Z,11.98
2022-11-21T22:44:03.826Z,11.13
2022-11-21T22:46:31.971Z,10.95
2022-11-21T22:48:59.154Z,11.27
2022-11-21T22:51:29.806Z,11.00
2022-11-21T22:53:57.438Z,11.30
2022-11-21T22:56:25.705Z,11.57
2022-11-21T22:58:53.485Z,11.13
2022-11-21T23:01:23.180Z,11.70
2022-11-21T23:03:51.082Z,12.02
2022-11-21T23:06:20.417Z,10.18
2022-11-21T23:08:48.318Z,10.75
2022-11-21T23:11:24.606Z,11.65
2022-11-21T23:13:52.456Z,10.73
2022-11-21T23:16:20.352Z,11.48
2022-11-21T23:18:47.981Z,11.25
2022-11-21T23:21:15.392Z,11.88
2022-11-21T23:23:44.129Z,11.00
2022-11-21T23:26:11.721Z,13.02
2022-11-21T23:28:38.893Z,11.75
2022-11-21T23:31:05.898Z,13.70
2022-11-21T23:33:32.909Z,10.93
2022-11-21T23:35:59.982Z,11.93
2022-11-21T23:38:27.200Z,12.02
2022-11-21T23:40:54.297Z,12.07
2022-11-21T23:43:21.288Z,11.65
2022-11-21T23:45:53.024Z,11.57
2022-11-21T23:48:21.377Z,11.98
2022-11-21T23:50:51.003Z,12.60
2022-11-21T23:53:22.084Z,12.40
2022-11-21T23:55:49.405Z,12.82
2022-11-21T23:58:17.166Z,11.68
